sensor_id;sensor_type;location;lat;lon;timestamp;P1;durP1;ratioP1;P2;durP2;ratioP2
357;SDS011;167;47.558;7.602;2023-04-08T00:01:40;1.87;;;1.77;;
357;SDS011;167;47.558;7.602;2023-04-08T00:04:06;2.50;;;2.30;;
357;SDS011;167;47.558;7.602;2023-04-08T00:06:33;1.40;;;1.40;;
357;SDS011;167;47.558;7.602;2023-04-08T00:08:59;2.40;;;2.30;;
357;SDS011;167;47.558;7.602;2023-04-08T00:11:25;1.90;;;1.80;;
357;SDS011;167;47.558;7.602;2023-04-08T00:13:51;1.97;;;1.87;;
357;SDS011;167;47.558;7.602;2023-04-08T00:16:17;1.57;;;1.37;;
357;SDS011;167;47.558;7.602;2023-04-08T00:18:43;1.40;;;1.30;;
357;SDS011;167;47.558;7.602;2023-04-08T00:21:09;1.73;;;1.63;;
357;SDS011;167;47.558;7.602;2023-04-08T00:23:35;2.00;;;1.87;;
357;SDS011;167;47.558;7.602;2023-04-08T00:26:01;1.90;;;1.80;;
357;SDS011;167;47.558;7.602;2023-04-08T00:28:27;2.10;;;2.00;;
357;SDS011;167;47.558;7.602;2023-04-08T00:30:53;2.20;;;2.10;;
357;SDS011;167;47.558;7.602;2023-04-08T00:33:19;1.90;;;1.80;;
357;SDS011;167;47.558;7.602;2023-04-08T00:35:45;2.43;;;2.30;;
357;SDS011;167;47.558;7.602;2023-04-08T00:38:11;2.13;;;2.03;;
357;SDS011;167;47.558;7.602;2023-04-08T00:40:37;1.93;;;1.83;;
357;SDS011;167;47.558;7.602;2023-04-08T00:43:03;2.37;;;2.27;;
357;SDS011;167;47.558;7.602;2023-04-08T00:45:29;2.10;;;2.00;;
357;SDS011;167;47.558;7.602;2023-04-08T00:47:55;2.40;;;2.30;;
357;SDS011;167;47.558;7.602;2023-04-08T00:50:21;2.30;;;2.20;;
357;SDS011;167;47.558;7.602;2023-04-08T00:52:47;1.60;;;1.50;;
357;SDS011;167;47.558;7.602;2023-04-08T00:55:13;2.40;;;2.30;;
357;SDS011;167;47.558;7.602;2023-04-08T00:57:39;1.80;;;1.70;;
357;SDS011;167;47.558;7.602;2023-04-08T01:00:05;2.50;;;2.30;;
357;SDS011;167;47.558;7.602;2023-04-08T01:02:38;2.30;;;2.20;;
357;SDS011;167;47.558;7.602;2023-04-08T01:05:24;2.37;;;2.27;;
357;SDS011;167;47.558;7.602;2023-04-08T01:07:52;2.47;;;2.27;;
357;SDS011;167;47.558;7.602;2023-04-08T01:10:22;2.70;;;2.20;;
357;SDS011;167;47.558;7.602;2023-04-08T01:12:55;2.93;;;2.73;;
357;SDS011;167;47.558;7.602;2023-04-08T01:15:22;2.17;;;2.07;;
357;SDS011;167;47.558;7.602;2023-04-08T01:17:49;2.13;;;2.03;;
357;SDS011;167;47.558;7.602;2023-04-08T01:20:17;3.00;;;2.80;;
357;SDS011;167;47.558;7.602;2023-04-08T01:25:35;2.10;;;2.00;;
357;SDS011;167;47.558;7.602;2023-04-08T01:28:04;2.53;;;2.33;;
357;SDS011;167;47.558;7.602;2023-04-08T01:30:32;2.43;;;2.33;;
357;SDS011;167;47.558;7.602;2023-04-08T01:32:58;3.10;;;2.50;;
357;SDS011;167;47.558;7.602;2023-04-08T01:35:26;2.43;;;2.23;;
357;SDS011;167;47.558;7.602;2023-04-08T01:37:53;2.13;;;2.03;;
357;SDS011;167;47.558;7.602;2023-04-08T01:40:19;2.27;;;2.17;;
357;SDS011;167;47.558;7.602;2023-04-08T01:42:48;2.23;;;2.03;;
357;SDS011;167;47.558;7.602;2023-04-08T01:45:15;3.03;;;2.30;;
357;SDS011;167;47.558;7.602;2023-04-08T01:47:42;2.67;;;2.47;;
357;SDS011;167;47.558;7.602;2023-04-08T01:50:08;2.60;;;2.40;;
357;SDS011;167;47.558;7.602;2023-04-08T01:52:34;2.57;;;2.37;;
357;SDS011;167;47.558;7.602;2023-04-08T01:55:02;2.17;;;2.07;;
357;SDS011;167;47.558;7.602;2023-04-08T01:57:30;2.33;;;2.13;;
357;SDS011;167;47.558;7.602;2023-04-08T01:59:58;4.43;;;2.10;;
357;SDS011;167;47.558;7.602;2023-04-08T02:02:25;2.37;;;2.27;;
357;SDS011;167;47.558;7.602;2023-04-08T02:04:54;2.10;;;2.00;;
357;SDS011;167;47.558;7.602;2023-04-08T02:07:20;2.27;;;2.07;;
357;SDS011;167;47.558;7.602;2023-04-08T02:09:47;2.10;;;2.00;;
357;SDS011;167;47.558;7.602;2023-04-08T02:12:13;1.80;;;1.70;;
357;SDS011;167;47.558;7.602;2023-04-08T02:14:38;3.47;;;2.20;;
357;SDS011;167;47.558;7.602;2023-04-08T02:17:07;1.63;;;1.53;;
357;SDS011;167;47.558;7.602;2023-04-08T02:19:35;1.80;;;1.70;;
357;SDS011;167;47.558;7.602;2023-04-08T02:22:07;1.80;;;1.70;;
357;SDS011;167;47.558;7.602;2023-04-08T02:24:35;2.27;;;2.10;;
357;SDS011;167;47.558;7.602;2023-04-08T02:27:02;1.80;;;1.63;;
357;SDS011;167;47.558;7.602;2023-04-08T02:29:29;1.83;;;1.73;;
357;SDS011;167;47.558;7.602;2023-04-08T02:31:56;1.77;;;1.70;;
357;SDS011;167;47.558;7.602;2023-04-08T02:34:23;1.70;;;1.60;;
357;SDS011;167;47.558;7.602;2023-04-08T02:36:49;1.10;;;1.10;;
357;SDS011;167;47.558;7.602;2023-04-08T02:39:16;1.63;;;1.60;;
357;SDS011;167;47.558;7.602;2023-04-08T02:41:42;1.53;;;1.47;;
357;SDS011;167;47.558;7.602;2023-04-08T02:44:08;1.83;;;1.73;;
357;SDS011;167;47.558;7.602;2023-04-08T02:46:34;2.10;;;1.93;;
357;SDS011;167;47.558;7.602;2023-04-08T02:49:00;2.20;;;2.00;;
357;SDS011;167;47.558;7.602;2023-04-08T02:51:26;1.77;;;1.67;;
357;SDS011;167;47.558;7.602;2023-04-08T02:53:52;2.23;;;1.67;;
357;SDS011;167;47.558;7.602;2023-04-08T02:56:18;1.77;;;1.70;;
357;SDS011;167;47.558;7.602;2023-04-08T02:58:45;2.00;;;1.90;;
357;SDS011;167;47.558;7.602;2023-04-08T03:01:11;8.20;;;2.10;;
357;SDS011;167;47.558;7.602;2023-04-08T03:03:37;1.40;;;1.40;;
357;SDS011;167;47.558;7.602;2023-04-08T03:06:03;1.67;;;1.67;;
357;SDS011;167;47.558;7.602;2023-04-08T03:08:29;2.57;;;2.27;;
357;SDS011;167;47.558;7.602;2023-04-08T03:10:55;2.07;;;1.93;;
357;SDS011;167;47.558;7.602;2023-04-08T03:13:21;2.23;;;2.10;;
357;SDS011;167;47.558;7.602;2023-04-08T03:15:47;2.10;;;1.90;;
357;SDS011;167;47.558;7.602;2023-04-08T03:18:13;2.03;;;1.93;;
357;SDS011;167;47.558;7.602;2023-04-08T03:20:39;2.00;;;1.80;;
357;SDS011;167;47.558;7.602;2023-04-08T03:23:05;1.97;;;1.87;;
357;SDS011;167;47.558;7.602;2023-04-08T03:25:31;1.67;;;1.60;;
357;SDS011;167;47.558;7.602;2023-04-08T03:27:57;1.80;;;1.70;;
357;SDS011;167;47.558;7.602;2023-04-08T03:30:23;2.23;;;2.10;;
357;SDS011;167;47.558;7.602;2023-04-08T03:32:49;2.10;;;2.00;;
357;SDS011;167;47.558;7.602;2023-04-08T03:35:15;1.90;;;1.80;;
357;SDS011;167;47.558;7.602;2023-04-08T03:37:41;2.53;;;2.33;;
357;SDS011;167;47.558;7.602;2023-04-08T03:40:07;2.43;;;2.30;;
357;SDS011;167;47.558;7.602;2023-04-08T03:42:33;2.33;;;2.23;;
357;SDS011;167;47.558;7.602;2023-04-08T03:44:59;2.30;;;2.20;;
357;SDS011;167;47.558;7.602;2023-04-08T03:47:26;1.60;;;1.60;;
357;SDS011;167;47.558;7.602;2023-04-08T03:49:52;1.80;;;1.70;;
357;SDS011;167;47.558;7.602;2023-04-08T03:52:21;1.57;;;1.57;;
357;SDS011;167;47.558;7.602;2023-04-08T03:54:47;1.80;;;1.70;;
357;SDS011;167;47.558;7.602;2023-04-08T03:57:13;1.60;;;1.60;;
357;SDS011;167;47.558;7.602;2023-04-08T03:59:39;2.00;;;1.77;;
357;SDS011;167;47.558;7.602;2023-04-08T04:02:05;1.93;;;1.77;;
357;SDS011;167;47.558;7.602;2023-04-08T04:04:31;1.93;;;1.83;;
357;SDS011;167;47.558;7.602;2023-04-08T04:06:58;1.87;;;1.77;;
357;SDS011;167;47.558;7.602;2023-04-08T04:09:24;3.20;;;1.80;;
357;SDS011;167;47.558;7.602;2023-04-08T04:11:50;1.63;;;1.63;;
357;SDS011;167;47.558;7.602;2023-04-08T04:14:16;1.53;;;1.43;;
357;SDS011;167;47.558;7.602;2023-04-08T04:16:42;1.37;;;1.37;;
357;SDS011;167;47.558;7.602;2023-04-08T04:19:07;1.90;;;1.80;;
357;SDS011;167;47.558;7.602;2023-04-08T04:21:33;1.20;;;1.20;;
357;SDS011;167;47.558;7.602;2023-04-08T04:23:59;1.43;;;1.37;;
357;SDS011;167;47.558;7.602;2023-04-08T04:26:25;1.70;;;1.60;;
357;SDS011;167;47.558;7.602;2023-04-08T04:28:51;1.53;;;1.43;;
357;SDS011;167;47.558;7.602;2023-04-08T04:31:18;2.30;;;1.97;;
357;SDS011;167;47.558;7.602;2023-04-08T04:33:45;1.60;;;1.50;;
357;SDS011;167;47.558;7.602;2023-04-08T04:36:11;1.53;;;1.53;;
357;SDS011;167;47.558;7.602;2023-04-08T04:38:37;1.70;;;1.60;;
357;SDS011;167;47.558;7.602;2023-04-08T04:41:03;1.77;;;1.67;;
357;SDS011;167;47.558;7.602;2023-04-08T04:43:29;1.50;;;1.40;;
357;SDS011;167;47.558;7.602;2023-04-08T04:45:55;1.43;;;1.40;;
357;SDS011;167;47.558;7.602;2023-04-08T04:48:21;1.90;;;1.80;;
357;SDS011;167;47.558;7.602;2023-04-08T04:50:54;1.53;;;1.53;;
357;SDS011;167;47.558;7.602;2023-04-08T04:53:20;1.63;;;1.60;;
357;SDS011;167;47.558;7.602;2023-04-08T04:55:46;2.33;;;2.10;;
357;SDS011;167;47.558;7.602;2023-04-08T04:58:12;1.47;;;1.43;;
357;SDS011;167;47.558;7.602;2023-04-08T05:00:38;1.80;;;1.70;;
357;SDS011;167;47.558;7.602;2023-04-08T05:03:04;2.20;;;1.60;;
357;SDS011;167;47.558;7.602;2023-04-08T05:05:30;2.00;;;1.90;;
357;SDS011;167;47.558;7.602;2023-04-08T05:07:56;1.57;;;1.57;;
357;SDS011;167;47.558;7.602;2023-04-08T05:10:22;1.47;;;1.43;;
357;SDS011;167;47.558;7.602;2023-04-08T05:12:47;1.70;;;1.57;;
357;SDS011;167;47.558;7.602;2023-04-08T05:15:13;2.20;;;2.00;;
357;SDS011;167;47.558;7.602;2023-04-08T05:17:39;1.63;;;1.50;;
357;SDS011;167;47.558;7.602;2023-04-08T05:20:05;1.63;;;1.53;;
357;SDS011;167;47.558;7.602;2023-04-08T05:22:31;2.10;;;2.00;;
357;SDS011;167;47.558;7.602;2023-04-08T05:24:58;2.00;;;1.80;;
357;SDS011;167;47.558;7.602;2023-04-08T05:27:24;1.60;;;1.50;;
357;SDS011;167;47.558;7.602;2023-04-08T05:29:51;2.07;;;1.97;;
357;SDS011;167;47.558;7.602;2023-04-08T05:32:17;1.50;;;1.40;;
357;SDS011;167;47.558;7.602;2023-04-08T05:34:43;1.27;;;1.27;;
357;SDS011;167;47.558;7.602;2023-04-08T05:37:09;2.50;;;1.87;;
357;SDS011;167;47.558;7.602;2023-04-08T05:39:35;2.20;;;2.10;;
357;SDS011;167;47.558;7.602;2023-04-08T05:42:01;1.47;;;1.37;;
357;SDS011;167;47.558;7.602;2023-04-08T05:44:27;1.90;;;1.80;;
357;SDS011;167;47.558;7.602;2023-04-08T05:46:53;1.60;;;1.60;;
357;SDS011;167;47.558;7.602;2023-04-08T05:49:21;1.53;;;1.43;;
357;SDS011;167;47.558;7.602;2023-04-08T05:51:47;1.80;;;1.70;;
357;SDS011;167;47.558;7.602;2023-04-08T05:54:13;1.97;;;1.87;;
357;SDS011;167;47.558;7.602;2023-04-08T05:56:39;1.80;;;1.70;;
357;SDS011;167;47.558;7.602;2023-04-08T05:59:05;2.00;;;1.90;;
357;SDS011;167;47.558;7.602;2023-04-08T06:01:31;1.90;;;1.80;;
357;SDS011;167;47.558;7.602;2023-04-08T06:03:57;2.70;;;1.80;;
357;SDS011;167;47.558;7.602;2023-04-08T06:06:23;2.03;;;1.83;;
357;SDS011;167;47.558;7.602;2023-04-08T06:08:52;1.70;;;1.60;;
357;SDS011;167;47.558;7.602;2023-04-08T06:11:18;9.70;;;2.30;;
357;SDS011;167;47.558;7.602;2023-04-08T06:13:44;2.27;;;2.13;;
357;SDS011;167;47.558;7.602;2023-04-08T06:16:10;2.10;;;1.97;;
357;SDS011;167;47.558;7.602;2023-04-08T06:18:37;2.30;;;2.20;;
357;SDS011;167;47.558;7.602;2023-04-08T06:21:03;4.40;;;1.67;;
357;SDS011;167;47.558;7.602;2023-04-08T06:23:29;2.13;;;2.03;;
357;SDS011;167;47.558;7.602;2023-04-08T06:25:55;2.47;;;2.30;;
357;SDS011;167;47.558;7.602;2023-04-08T06:28:21;1.80;;;1.70;;
357;SDS011;167;47.558;7.602;2023-04-08T06:30:47;1.50;;;1.43;;
357;SDS011;167;47.558;7.602;2023-04-08T06:33:13;2.00;;;1.90;;
357;SDS011;167;47.558;7.602;2023-04-08T06:35:39;1.93;;;1.83;;
357;SDS011;167;47.558;7.602;2023-04-08T06:38:05;2.40;;;2.30;;
357;SDS011;167;47.558;7.602;2023-04-08T06:40:31;2.33;;;2.23;;
357;SDS011;167;47.558;7.602;2023-04-08T06:42:57;2.10;;;2.00;;
357;SDS011;167;47.558;7.602;2023-04-08T06:45:23;1.83;;;1.77;;
357;SDS011;167;47.558;7.602;2023-04-08T06:47:50;2.40;;;2.20;;
357;SDS011;167;47.558;7.602;2023-04-08T06:50:16;3.20;;;2.70;;
357;SDS011;167;47.558;7.602;2023-04-08T06:52:42;4.07;;;2.30;;
357;SDS011;167;47.558;7.602;2023-04-08T06:55:08;2.47;;;2.37;;
357;SDS011;167;47.558;7.602;2023-04-08T06:57:34;1.93;;;1.83;;
357;SDS011;167;47.558;7.602;2023-04-08T07:00:00;2.03;;;1.93;;
357;SDS011;167;47.558;7.602;2023-04-08T07:02:26;2.07;;;1.97;;
357;SDS011;167;47.558;7.602;2023-04-08T07:04:52;2.23;;;2.13;;
357;SDS011;167;47.558;7.602;2023-04-08T07:07:18;2.13;;;2.03;;
357;SDS011;167;47.558;7.602;2023-04-08T07:09:44;2.20;;;2.10;;
357;SDS011;167;47.558;7.602;2023-04-08T07:12:11;2.30;;;2.20;;
357;SDS011;167;47.558;7.602;2023-04-08T07:14:37;1.87;;;1.80;;
357;SDS011;167;47.558;7.602;2023-04-08T07:17:03;2.10;;;2.00;;
357;SDS011;167;47.558;7.602;2023-04-08T07:19:29;2.07;;;1.97;;
357;SDS011;167;47.558;7.602;2023-04-08T07:21:55;2.30;;;2.20;;
357;SDS011;167;47.558;7.602;2023-04-08T07:24:21;2.97;;;2.87;;
357;SDS011;167;47.558;7.602;2023-04-08T07:26:47;3.33;;;3.13;;
357;SDS011;167;47.558;7.602;2023-04-08T07:29:14;3.77;;;2.70;;
357;SDS011;167;47.558;7.602;2023-04-08T07:31:41;3.50;;;3.30;;
357;SDS011;167;47.558;7.602;2023-04-08T07:34:07;3.60;;;3.40;;
357;SDS011;167;47.558;7.602;2023-04-08T07:36:33;3.33;;;3.13;;
357;SDS011;167;47.558;7.602;2023-04-08T07:38:59;3.10;;;2.90;;
357;SDS011;167;47.558;7.602;2023-04-08T07:41:25;3.20;;;3.00;;
357;SDS011;167;47.558;7.602;2023-04-08T07:43:51;2.90;;;2.80;;
357;SDS011;167;47.558;7.602;2023-04-08T07:46:17;3.10;;;2.90;;
357;SDS011;167;47.558;7.602;2023-04-08T07:48:44;3.50;;;3.10;;
357;SDS011;167;47.558;7.602;2023-04-08T07:51:11;3.37;;;3.07;;
357;SDS011;167;47.558;7.602;2023-04-08T07:53:37;3.70;;;3.50;;
357;SDS011;167;47.558;7.602;2023-04-08T07:56:09;3.37;;;3.23;;
357;SDS011;167;47.558;7.602;2023-04-08T07:58:35;4.07;;;3.37;;
357;SDS011;167;47.558;7.602;2023-04-08T08:01:01;4.43;;;4.23;;
357;SDS011;167;47.558;7.602;2023-04-08T08:03:27;4.67;;;4.30;;
357;SDS011;167;47.558;7.602;2023-04-08T08:05:53;4.20;;;3.93;;
357;SDS011;167;47.558;7.602;2023-04-08T08:08:19;4.00;;;3.80;;
357;SDS011;167;47.558;7.602;2023-04-08T08:10:45;3.40;;;3.30;;
357;SDS011;167;47.558;7.602;2023-04-08T08:13:11;4.23;;;4.03;;
357;SDS011;167;47.558;7.602;2023-04-08T08:15:40;4.53;;;4.33;;
357;SDS011;167;47.558;7.602;2023-04-08T08:18:06;3.90;;;3.70;;
357;SDS011;167;47.558;7.602;2023-04-08T08:20:34;3.90;;;3.70;;
357;SDS011;167;47.558;7.602;2023-04-08T08:23:00;4.00;;;3.80;;
357;SDS011;167;47.558;7.602;2023-04-08T08:25:26;4.03;;;3.83;;
357;SDS011;167;47.558;7.602;2023-04-08T08:27:52;4.13;;;3.93;;
357;SDS011;167;47.558;7.602;2023-04-08T08:30:19;4.30;;;4.10;;
357;SDS011;167;47.558;7.602;2023-04-08T08:32:46;4.00;;;3.80;;
357;SDS011;167;47.558;7.602;2023-04-08T08:35:12;4.37;;;4.07;;
357;SDS011;167;47.558;7.602;2023-04-08T08:37:38;4.27;;;4.07;;
357;SDS011;167;47.558;7.602;2023-04-08T08:40:04;3.77;;;3.57;;
357;SDS011;167;47.558;7.602;2023-04-08T08:42:30;4.30;;;4.10;;
357;SDS011;167;47.558;7.602;2023-04-08T08:44:56;4.40;;;4.00;;
357;SDS011;167;47.558;7.602;2023-04-08T08:47:22;4.07;;;3.87;;
357;SDS011;167;47.558;7.602;2023-04-08T08:49:48;4.10;;;3.80;;
357;SDS011;167;47.558;7.602;2023-04-08T08:52:15;4.13;;;3.93;;
357;SDS011;167;47.558;7.602;2023-04-08T08:54:42;4.07;;;3.87;;
357;SDS011;167;47.558;7.602;2023-04-08T08:57:17;4.60;;;4.40;;
357;SDS011;167;47.558;7.602;2023-04-08T08:59:44;4.93;;;4.63;;
357;SDS011;167;47.558;7.602;2023-04-08T09:02:23;4.20;;;4.00;;
357;SDS011;167;47.558;7.602;2023-04-08T09:07:23;4.70;;;4.47;;
357;SDS011;167;47.558;7.602;2023-04-08T09:09:52;4.60;;;4.40;;
357;SDS011;167;47.558;7.602;2023-04-08T09:12:18;4.90;;;4.67;;
357;SDS011;167;47.558;7.602;2023-04-08T09:14:44;3.93;;;3.73;;
357;SDS011;167;47.558;7.602;2023-04-08T09:17:11;4.53;;;4.33;;
357;SDS011;167;47.558;7.602;2023-04-08T09:19:37;4.93;;;4.43;;
357;SDS011;167;47.558;7.602;2023-04-08T09:22:04;5.07;;;4.67;;
357;SDS011;167;47.558;7.602;2023-04-08T09:24:31;4.90;;;4.70;;
357;SDS011;167;47.558;7.602;2023-04-08T09:26:57;5.03;;;4.73;;
357;SDS011;167;47.558;7.602;2023-04-08T09:29:23;4.93;;;4.63;;
357;SDS011;167;47.558;7.602;2023-04-08T09:31:53;4.57;;;4.27;;
357;SDS011;167;47.558;7.602;2023-04-08T09:34:20;5.27;;;4.97;;
357;SDS011;167;47.558;7.602;2023-04-08T09:36:47;4.80;;;4.60;;
357;SDS011;167;47.558;7.602;2023-04-08T09:39:13;4.60;;;4.40;;
357;SDS011;167;47.558;7.602;2023-04-08T09:41:40;4.50;;;4.20;;
357;SDS011;167;47.558;7.602;2023-04-08T09:44:07;5.20;;;4.90;;
357;SDS011;167;47.558;7.602;2023-04-08T09:51:57;5.10;;;4.80;;
357;SDS011;167;47.558;7.602;2023-04-08T09:54:26;4.90;;;4.60;;
357;SDS011;167;47.558;7.602;2023-04-08T09:57:15;5.00;;;4.63;;
357;SDS011;167;47.558;7.602;2023-04-08T09:59:45;4.83;;;4.50;;
357;SDS011;167;47.558;7.602;2023-04-08T10:02:16;5.80;;;5.30;;
357;SDS011;167;47.558;7.602;2023-04-08T10:04:44;4.80;;;4.50;;
357;SDS011;167;47.558;7.602;2023-04-08T10:07:13;5.40;;;5.10;;
357;SDS011;167;47.558;7.602;2023-04-08T10:09:39;5.03;;;4.73;;
357;SDS011;167;47.558;7.602;2023-04-08T10:12:07;5.80;;;5.43;;
357;SDS011;167;47.558;7.602;2023-04-08T10:14:33;5.13;;;4.83;;
357;SDS011;167;47.558;7.602;2023-04-08T10:19:44;5.30;;;5.00;;
357;SDS011;167;47.558;7.602;2023-04-08T10:27:43;5.10;;;4.70;;
357;SDS011;167;47.558;7.602;2023-04-08T10:30:38;5.00;;;4.70;;
357;SDS011;167;47.558;7.602;2023-04-08T10:33:12;5.70;;;5.30;;
357;SDS011;167;47.558;7.602;2023-04-08T10:35:44;5.97;;;5.63;;
357;SDS011;167;47.558;7.602;2023-04-08T10:38:12;5.47;;;5.10;;
357;SDS011;167;47.558;7.602;2023-04-08T10:40:39;5.50;;;5.00;;
357;SDS011;167;47.558;7.602;2023-04-08T10:43:06;4.43;;;4.13;;
357;SDS011;167;47.558;7.602;2023-04-08T10:45:32;5.70;;;5.20;;
357;SDS011;167;47.558;7.602;2023-04-08T10:48:15;5.90;;;5.50;;
357;SDS011;167;47.558;7.602;2023-04-08T10:50:59;5.37;;;4.97;;
357;SDS011;167;47.558;7.602;2023-04-08T10:53:26;4.90;;;4.60;;
357;SDS011;167;47.558;7.602;2023-04-08T10:55:53;5.60;;;5.20;;
357;SDS011;167;47.558;7.602;2023-04-08T10:58:19;5.23;;;4.80;;
357;SDS011;167;47.558;7.602;2023-04-08T11:00:45;4.87;;;4.67;;
357;SDS011;167;47.558;7.602;2023-04-08T11:03:11;6.20;;;5.70;;
357;SDS011;167;47.558;7.602;2023-04-08T11:05:37;5.00;;;4.70;;
357;SDS011;167;47.558;7.602;2023-04-08T11:08:03;5.77;;;5.47;;
357;SDS011;167;47.558;7.602;2023-04-08T11:10:32;5.57;;;5.27;;
357;SDS011;167;47.558;7.602;2023-04-08T11:13:01;6.07;;;5.57;;
357;SDS011;167;47.558;7.602;2023-04-08T11:15:28;6.13;;;5.73;;
357;SDS011;167;47.558;7.602;2023-04-08T11:17:55;5.80;;;5.40;;
357;SDS011;167;47.558;7.602;2023-04-08T11:20:21;6.27;;;5.87;;
357;SDS011;167;47.558;7.602;2023-04-08T11:22:47;5.97;;;5.57;;
357;SDS011;167;47.558;7.602;2023-04-08T11:25:13;6.23;;;5.77;;
357;SDS011;167;47.558;7.602;2023-04-08T11:27:39;6.07;;;5.57;;
357;SDS011;167;47.558;7.602;2023-04-08T11:30:05;6.00;;;5.60;;
357;SDS011;167;47.558;7.602;2023-04-08T11:32:32;5.60;;;5.23;;
357;SDS011;167;47.558;7.602;2023-04-08T11:34:58;5.50;;;5.20;;
357;SDS011;167;47.558;7.602;2023-04-08T11:37:26;5.50;;;5.10;;
357;SDS011;167;47.558;7.602;2023-04-08T11:39:53;6.57;;;6.07;;
357;SDS011;167;47.558;7.602;2023-04-08T11:42:27;5.53;;;5.23;;
357;SDS011;167;47.558;7.602;2023-04-08T11:44:53;5.83;;;5.43;;
357;SDS011;167;47.558;7.602;2023-04-08T11:47:19;5.40;;;5.00;;
357;SDS011;167;47.558;7.602;2023-04-08T11:49:46;5.80;;;5.40;;
357;SDS011;167;47.558;7.602;2023-04-08T11:52:12;5.83;;;5.43;;
357;SDS011;167;47.558;7.602;2023-04-08T11:54:41;5.93;;;5.53;;
357;SDS011;167;47.558;7.602;2023-04-08T11:57:07;5.90;;;5.50;;
357;SDS011;167;47.558;7.602;2023-04-08T11:59:37;5.20;;;4.90;;
357;SDS011;167;47.558;7.602;2023-04-08T12:02:03;5.07;;;4.70;;
357;SDS011;167;47.558;7.602;2023-04-08T12:04:29;4.90;;;4.60;;
357;SDS011;167;47.558;7.602;2023-04-08T12:06:56;5.13;;;4.83;;
357;SDS011;167;47.558;7.602;2023-04-08T12:09:22;4.90;;;4.60;;
357;SDS011;167;47.558;7.602;2023-04-08T12:11:48;4.47;;;4.20;;
357;SDS011;167;47.558;7.602;2023-04-08T12:14:13;3.73;;;3.53;;
357;SDS011;167;47.558;7.602;2023-04-08T12:16:39;4.30;;;4.00;;
357;SDS011;167;47.558;7.602;2023-04-08T12:19:06;4.70;;;4.40;;
357;SDS011;167;47.558;7.602;2023-04-08T12:21:31;4.90;;;4.60;;
357;SDS011;167;47.558;7.602;2023-04-08T12:23:58;4.43;;;4.20;;
357;SDS011;167;47.558;7.602;2023-04-08T12:26:24;4.00;;;3.80;;
357;SDS011;167;47.558;7.602;2023-04-08T12:28:51;5.30;;;4.97;;
357;SDS011;167;47.558;7.602;2023-04-08T12:31:17;5.70;;;5.30;;
357;SDS011;167;47.558;7.602;2023-04-08T12:33:43;4.90;;;4.60;;
357;SDS011;167;47.558;7.602;2023-04-08T12:36:09;5.67;;;5.33;;
357;SDS011;167;47.558;7.602;2023-04-08T12:38:35;5.10;;;4.70;;
357;SDS011;167;47.558;7.602;2023-04-08T12:41:01;4.27;;;4.07;;
357;SDS011;167;47.558;7.602;2023-04-08T12:43:27;4.47;;;4.17;;
357;SDS011;167;47.558;7.602;2023-04-08T12:45:53;4.17;;;3.87;;
357;SDS011;167;47.558;7.602;2023-04-08T12:48:19;4.43;;;4.10;;
357;SDS011;167;47.558;7.602;2023-04-08T12:50:45;4.83;;;4.53;;
357;SDS011;167;47.558;7.602;2023-04-08T12:53:11;4.50;;;4.20;;
357;SDS011;167;47.558;7.602;2023-04-08T12:55:37;4.30;;;4.10;;
357;SDS011;167;47.558;7.602;2023-04-08T12:58:03;4.50;;;4.20;;
357;SDS011;167;47.558;7.602;2023-04-08T13:00:30;3.33;;;3.13;;
357;SDS011;167;47.558;7.602;2023-04-08T13:02:56;4.50;;;4.20;;
357;SDS011;167;47.558;7.602;2023-04-08T13:05:22;3.70;;;3.50;;
357;SDS011;167;47.558;7.602;2023-04-08T13:07:48;4.07;;;3.77;;
357;SDS011;167;47.558;7.602;2023-04-08T13:10:14;4.80;;;4.47;;
357;SDS011;167;47.558;7.602;2023-04-08T13:12:40;4.20;;;3.90;;
357;SDS011;167;47.558;7.602;2023-04-08T13:15:06;3.90;;;3.60;;
357;SDS011;167;47.558;7.602;2023-04-08T13:17:33;3.67;;;3.47;;
357;SDS011;167;47.558;7.602;2023-04-08T13:19:59;3.90;;;3.70;;
357;SDS011;167;47.558;7.602;2023-04-08T13:22:25;4.30;;;4.00;;
357;SDS011;167;47.558;7.602;2023-04-08T13:24:51;4.63;;;4.33;;
357;SDS011;167;47.558;7.602;2023-04-08T13:27:17;3.97;;;3.77;;
357;SDS011;167;47.558;7.602;2023-04-08T13:29:43;4.17;;;3.87;;
357;SDS011;167;47.558;7.602;2023-04-08T13:32:09;4.57;;;4.20;;
357;SDS011;167;47.558;7.602;2023-04-08T13:34:35;5.50;;;5.10;;
357;SDS011;167;47.558;7.602;2023-04-08T13:37:01;4.93;;;4.63;;
357;SDS011;167;47.558;7.602;2023-04-08T13:39:28;4.60;;;4.30;;
357;SDS011;167;47.558;7.602;2023-04-08T13:41:54;4.70;;;4.40;;
357;SDS011;167;47.558;7.602;2023-04-08T13:44:20;6.03;;;5.63;;
357;SDS011;167;47.558;7.602;2023-04-08T13:46:47;6.63;;;6.13;;
357;SDS011;167;47.558;7.602;2023-04-08T13:49:13;7.23;;;6.63;;
357;SDS011;167;47.558;7.602;2023-04-08T13:51:40;6.47;;;5.97;;
357;SDS011;167;47.558;7.602;2023-04-08T13:54:05;5.10;;;4.80;;
357;SDS011;167;47.558;7.602;2023-04-08T13:56:31;5.87;;;5.47;;
357;SDS011;167;47.558;7.602;2023-04-08T13:58:58;5.33;;;4.83;;
357;SDS011;167;47.558;7.602;2023-04-08T14:01:23;6.10;;;5.60;;
357;SDS011;167;47.558;7.602;2023-04-08T14:03:50;5.33;;;4.93;;
357;SDS011;167;47.558;7.602;2023-04-08T14:06:16;5.07;;;4.67;;
357;SDS011;167;47.558;7.602;2023-04-08T14:08:42;5.70;;;5.20;;
357;SDS011;167;47.558;7.602;2023-04-08T14:11:08;6.57;;;6.07;;
357;SDS011;167;47.558;7.602;2023-04-08T14:13:33;5.80;;;5.30;;
357;SDS011;167;47.558;7.602;2023-04-08T14:16:00;8.43;;;5.77;;
357;SDS011;167;47.558;7.602;2023-04-08T14:18:26;5.60;;;5.20;;
357;SDS011;167;47.558;7.602;2023-04-08T14:20:53;5.13;;;4.70;;
357;SDS011;167;47.558;7.602;2023-04-08T14:23:19;5.50;;;5.10;;
357;SDS011;167;47.558;7.602;2023-04-08T14:25:45;5.00;;;4.60;;
357;SDS011;167;47.558;7.602;2023-04-08T14:28:11;4.87;;;4.57;;
357;SDS011;167;47.558;7.602;2023-04-08T14:30:37;4.73;;;4.33;;
357;SDS011;167;47.558;7.602;2023-04-08T14:33:03;4.53;;;4.23;;
357;SDS011;167;47.558;7.602;2023-04-08T14:35:29;4.80;;;4.50;;
357;SDS011;167;47.558;7.602;2023-04-08T14:37:55;4.77;;;4.37;;
357;SDS011;167;47.558;7.602;2023-04-08T14:40:21;4.53;;;4.23;;
357;SDS011;167;47.558;7.602;2023-04-08T14:42:47;4.53;;;4.20;;
357;SDS011;167;47.558;7.602;2023-04-08T14:45:16;5.10;;;4.70;;
357;SDS011;167;47.558;7.602;2023-04-08T14:47:42;4.70;;;4.40;;
357;SDS011;167;47.558;7.602;2023-04-08T14:50:08;4.30;;;4.00;;
357;SDS011;167;47.558;7.602;2023-04-08T14:52:34;4.53;;;4.23;;
357;SDS011;167;47.558;7.602;2023-04-08T14:55:00;5.50;;;5.10;;
357;SDS011;167;47.558;7.602;2023-04-08T14:57:26;4.60;;;4.30;;
357;SDS011;167;47.558;7.602;2023-04-08T14:59:52;5.00;;;4.60;;
357;SDS011;167;47.558;7.602;2023-04-08T15:02:18;5.43;;;4.47;;
357;SDS011;167;47.558;7.602;2023-04-08T15:04:44;5.63;;;5.23;;
357;SDS011;167;47.558;7.602;2023-04-08T15:07:10;6.17;;;5.67;;
357;SDS011;167;47.558;7.602;2023-04-08T15:09:36;5.10;;;4.70;;
357;SDS011;167;47.558;7.602;2023-04-08T15:12:02;4.43;;;4.03;;
357;SDS011;167;47.558;7.602;2023-04-08T15:14:29;5.40;;;5.00;;
357;SDS011;167;47.558;7.602;2023-04-08T15:16:55;4.90;;;4.50;;
357;SDS011;167;47.558;7.602;2023-04-08T15:19:21;5.00;;;4.70;;
357;SDS011;167;47.558;7.602;2023-04-08T15:21:47;5.00;;;4.67;;
357;SDS011;167;47.558;7.602;2023-04-08T15:24:13;4.50;;;4.20;;
357;SDS011;167;47.558;7.602;2023-04-08T15:26:39;4.70;;;4.37;;
357;SDS011;167;47.558;7.602;2023-04-08T15:29:05;3.90;;;3.60;;
357;SDS011;167;47.558;7.602;2023-04-08T15:31:31;4.77;;;4.47;;
357;SDS011;167;47.558;7.602;2023-04-08T15:33:58;4.67;;;4.37;;
357;SDS011;167;47.558;7.602;2023-04-08T15:36:26;4.70;;;4.40;;
357;SDS011;167;47.558;7.602;2023-04-08T15:38:53;3.63;;;3.43;;
357;SDS011;167;47.558;7.602;2023-04-08T15:41:19;3.17;;;2.97;;
357;SDS011;167;47.558;7.602;2023-04-08T15:43:48;3.00;;;2.90;;
357;SDS011;167;47.558;7.602;2023-04-08T15:46:17;3.97;;;3.67;;
357;SDS011;167;47.558;7.602;2023-04-08T15:48:43;3.67;;;3.47;;
357;SDS011;167;47.558;7.602;2023-04-08T15:51:09;4.97;;;4.67;;
357;SDS011;167;47.558;7.602;2023-04-08T15:53:39;4.00;;;3.80;;
357;SDS011;167;47.558;7.602;2023-04-08T15:56:05;4.10;;;3.80;;
357;SDS011;167;47.558;7.602;2023-04-08T15:58:32;4.20;;;3.90;;
357;SDS011;167;47.558;7.602;2023-04-08T16:00:58;4.63;;;4.30;;